Time;durP1;ratioP1;P1;durP2;ratioP2;P2;SDS_P1;SDS_P2;PMS_P1;PMS_P2;Temp;Humidity;BMP_temperature;BMP_pressure;BME280_temperature;BME280_humidity;BME280_pressure;Samples;Min_cycle;Max_cycle;Signal;HPM_P1;HPM_P2
2021/06/25 00:01:00;;;;;;;8.20;7.45;;;13.70;99.90;;;;;;4910051;29;20044;-73
2021/06/25 00:03:26;;;;;;;8.07;7.28;;;13.60;99.90;;;;;;4910233;29;20082;-73
2021/06/25 00:05:52;;;;;;;7.70;7.00;;;13.60;99.90;;;;;;4909924;29;20056;-72
2021/06/25 00:08:18;;;;;;;9.57;8.57;;;13.50;99.90;;;;;;4912544;29;20051;-73
2021/06/25 00:10:44;;;;;;;8.18;7.38;;;13.50;99.90;;;;;;4913363;29;20048;-73
2021/06/25 00:13:09;;;;;;;8.98;8.18;;;13.40;99.90;;;;;;4913092;29;20056;-72
2021/06/25 00:15:35;;;;;;;8.00;7.20;;;13.40;99.90;;;;;;4912491;29;20486;-72
2021/06/25 00:18:01;;;;;;;8.70;7.90;;;13.30;99.90;;;;;;4913037;29;20131;-72
2021/06/25 00:20:30;;;;;;;8.85;7.95;;;13.10;99.90;;;;;;4913964;29;20124;-72
2021/06/25 00:22:56;;;;;;;10.55;9.32;;;13.00;99.90;;;;;;4913333;29;20049;-72
2021/06/25 00:25:23;;;;;;;10.20;9.20;;;13.00;99.90;;;;;;4912552;29;20045;-72
2021/06/25 00:27:49;;;;;;;10.35;9.30;;;12.90;99.90;;;;;;4912741;29;20052;-72
2021/06/25 00:30:16;;;;;;;7.78;7.10;;;12.80;99.90;;;;;;4912827;29;20067;-72
2021/06/25 00:32:44;;;;;;;9.75;8.85;;;12.80;99.90;;;;;;4911603;29;20044;-72
2021/06/25 00:35:10;;;;;;;9.20;8.40;;;12.80;99.90;;;;;;4912508;29;20049;-73
2021/06/25 00:37:36;;;;;;;9.15;8.07;;;12.80;99.90;;;;;;4913082;29;20065;-73
2021/06/25 00:40:03;;;;;;;7.90;7.20;;;12.80;99.90;;;;;;4912374;29;20060;-73
2021/06/25 00:42:28;;;;;;;10.20;9.20;;;12.70;99.90;;;;;;4913208;29;20044;-72
2021/06/25 00:44:54;;;;;;;10.50;9.52;;;12.70;99.90;;;;;;4913029;29;20060;-72
2021/06/25 00:47:20;;;;;;;9.77;8.88;;;12.70;99.90;;;;;;4912350;29;20120;-73
2021/06/25 00:49:46;;;;;;;10.70;9.70;;;12.60;99.90;;;;;;4912068;29;20112;-73
2021/06/25 00:52:17;;;;;;;9.20;8.40;;;12.50;99.90;;;;;;4912430;29;20082;-73
2021/06/25 00:54:43;;;;;;;8.45;7.68;;;12.50;99.90;;;;;;4913174;29;20052;-73
2021/06/25 00:57:10;;;;;;;9.38;8.48;;;12.40;99.90;;;;;;4912908;29;20056;-73
2021/06/25 00:59:36;;;;;;;9.05;8.15;;;12.50;99.90;;;;;;4912283;29;20074;-74
2021/06/25 01:02:02;;;;;;;8.98;8.15;;;12.50;99.90;;;;;;4911898;29;20564;-73
2021/06/25 01:04:28;;;;;;;8.82;7.93;;;12.40;99.90;;;;;;4912283;29;20090;-73
2021/06/25 01:06:54;;;;;;;8.55;7.75;;;12.30;99.90;;;;;;4912135;29;20045;-73
2021/06/25 01:09:21;;;;;;;9.00;8.20;;;12.20;99.90;;;;;;4913291;29;20103;-73
2021/06/25 01:11:47;;;;;;;9.65;7.80;;;12.00;99.90;;;;;;4912131;29;20052;-73
2021/06/25 01:14:13;;;;;;;8.07;7.38;;;11.90;99.90;;;;;;4912668;29;20131;-73
2021/06/25 01:16:40;;;;;;;8.93;8.13;;;11.90;99.90;;;;;;4911790;29;20102;-73
2021/06/25 01:19:13;;;;;;;6.65;6.05;;;11.90;99.90;;;;;;4910710;29;20047;-73
2021/06/25 01:21:41;;;;;;;7.75;6.95;;;12.00;99.90;;;;;;4912563;29;20045;-73
2021/06/25 01:24:07;;;;;;;8.02;7.25;;;12.00;99.90;;;;;;4912725;29;20048;-72
2021/06/25 01:26:33;;;;;;;7.65;6.95;;;11.90;99.90;;;;;;4912024;29;20044;-73
2021/06/25 01:28:59;;;;;;;8.02;7.30;;;11.90;99.90;;;;;;4912198;29;20047;-73
2021/06/25 01:31:25;;;;;;;6.25;5.72;;;11.70;99.90;;;;;;4912411;29;20048;-74
2021/06/25 01:33:52;;;;;;;6.43;5.93;;;11.70;99.90;;;;;;4910322;29;20066;-73
2021/06/25 01:36:18;;;;;;;8.18;5.85;;;11.50;99.90;;;;;;4907035;29;20048;-73
2021/06/25 01:38:46;;;;;;;17.65;3.60;;;11.50;99.90;;;;;;4912251;29;20076;-73
2021/06/25 01:41:12;;;;;;;44.88;8.27;;;11.50;99.90;;;;;;4911392;29;20048;-73
2021/06/25 01:43:39;;;;;;;39.20;7.75;;;11.40;99.90;;;;;;4911159;29;20127;-73
2021/06/25 01:46:07;;;;;;;8.07;7.13;;;11.30;99.90;;;;;;4911158;29;20044;-73
2021/06/25 01:48:34;;;;;;;7.25;6.55;;;11.30;99.90;;;;;;4911163;29;20068;-74
2021/06/25 01:51:01;;;;;;;7.82;7.03;;;11.50;99.90;;;;;;4911358;29;20056;-73
2021/06/25 01:53:27;;;;;;;6.13;5.53;;;11.50;99.90;;;;;;4911163;29;20100;-73
2021/06/25 01:55:53;;;;;;;5.40;4.90;;;11.40;99.90;;;;;;4910491;29;20055;-73
2021/06/25 01:58:19;;;;;;;4.88;4.38;;;11.20;99.90;;;;;;4911436;29;20048;-74
2021/06/25 02:01:12;;;;;;;7.55;6.85;;;11.10;99.90;;;;;;4911050;29;20048;-73
2021/06/25 02:03:39;;;;;;;7.30;6.57;;;11.00;99.90;;;;;;4911250;29;20084;-73
2021/06/25 02:06:07;;;;;;;8.43;7.63;;;10.90;99.90;;;;;;4911865;29;20048;-74
2021/06/25 02:08:33;;;;;;;10.05;7.85;;;10.90;99.90;;;;;;4911553;29;20048;-73
2021/06/25 02:11:00;;;;;;;9.77;7.05;;;11.00;99.90;;;;;;4910976;29;20055;-73
2021/06/25 02:13:26;;;;;;;84.50;10.45;;;11.00;99.90;;;;;;4910875;29;20048;-73
2021/06/25 02:15:53;;;;;;;7.68;6.97;;;10.90;99.90;;;;;;4911078;29;20044;-73
2021/06/25 02:18:18;;;;;;;20.17;6.93;;;11.00;99.90;;;;;;4911855;29;20044;-73
2021/06/25 02:20:45;;;;;;;7.47;5.32;;;10.90;99.90;;;;;;4911159;29;20080;-74
2021/06/25 02:23:11;;;;;;;6.55;5.00;;;10.80;99.90;;;;;;4910232;29;20134;-73
2021/06/25 02:25:37;;;;;;;6.03;5.53;;;10.70;99.90;;;;;;4911608;29;20059;-74
2021/06/25 02:28:04;;;;;;;5.47;4.97;;;10.60;99.90;;;;;;4910944;29;20036;-73
2021/06/25 02:30:30;;;;;;;5.85;5.35;;;10.70;99.90;;;;;;4910520;29;20128;-73
2021/06/25 02:32:56;;;;;;;3.47;3.17;;;10.60;99.90;;;;;;4910635;29;20049;-74
2021/06/25 02:35:21;;;;;;;2.80;2.60;;;10.60;99.90;;;;;;4911387;29;20084;-74
2021/06/25 02:37:48;;;;;;;3.40;3.10;;;10.70;99.90;;;;;;4910302;29;20055;-74
2021/06/25 02:40:14;;;;;;;4.32;3.92;;;10.70;99.90;;;;;;4910539;29;20053;-73
2021/06/25 02:42:41;;;;;;;5.32;4.82;;;10.70;99.90;;;;;;4910528;29;20055;-73
2021/06/25 02:45:08;;;;;;;8.32;5.47;;;10.70;99.90;;;;;;4910160;29;20068;-74
2021/06/25 02:47:34;;;;;;;8.23;5.45;;;10.70;99.90;;;;;;4910555;29;20060;-73
2021/06/25 02:50:03;;;;;;;8.70;6.00;;;10.60;99.90;;;;;;4910444;29;20048;-74
2021/06/25 02:52:29;;;;;;;10.40;6.47;;;10.60;99.90;;;;;;4909103;29;20063;-73
2021/06/25 02:54:55;;;;;;;27.08;7.72;;;10.50;99.90;;;;;;4909585;29;20049;-74
2021/06/25 02:57:20;;;;;;;10.18;7.22;;;10.40;99.90;;;;;;4910035;29;20104;-73
2021/06/25 02:59:46;;;;;;;11.38;7.05;;;10.40;99.90;;;;;;4909246;29;20079;-74
2021/06/25 03:02:12;;;;;;;7.30;6.60;;;10.30;99.90;;;;;;4908665;29;20044;-74
2021/06/25 03:04:38;;;;;;;21.45;6.55;;;10.20;99.90;;;;;;4910744;29;20139;-74
2021/06/25 03:07:04;;;;;;;13.00;7.90;;;10.20;99.90;;;;;;4909852;29;20127;-74
2021/06/25 03:09:30;;;;;;;10.45;7.90;;;10.30;99.90;;;;;;4909989;29;20060;-73
2021/06/25 03:11:56;;;;;;;8.20;7.50;;;10.30;99.90;;;;;;4909768;29;20052;-73
2021/06/25 03:14:22;;;;;;;8.75;7.95;;;10.40;99.90;;;;;;4909898;29;20044;-73
2021/06/25 03:16:48;;;;;;;7.78;7.07;;;10.30;99.90;;;;;;4909883;29;20077;-73
2021/06/25 03:19:13;;;;;;;7.88;7.07;;;10.30;99.90;;;;;;4909756;29;20048;-73
2021/06/25 03:21:39;;;;;;;7.63;6.90;;;10.20;99.90;;;;;;4908606;29;20580;-74
2021/06/25 03:24:06;;;;;;;23.98;8.55;;;10.30;99.90;;;;;;4909839;29;20064;-74
2021/06/25 03:26:32;;;;;;;11.20;7.35;;;10.20;99.90;;;;;;4908629;29;20060;-73
2021/06/25 03:28:58;;;;;;;230.77;13.57;;;10.10;99.90;;;;;;4909561;29;20052;-73
2021/06/25 03:31:24;;;;;;;7.90;7.10;;;10.10;99.90;;;;;;4909941;29;20060;-74
2021/06/25 03:33:50;;;;;;;7.50;6.90;;;10.10;99.90;;;;;;4909447;29;20064;-74
2021/06/25 03:36:16;;;;;;;7.97;6.78;;;10.30;99.90;;;;;;4909342;29;20480;-75
2021/06/25 03:38:42;;;;;;;6.88;4.78;;;10.20;99.90;;;;;;4909748;29;20044;-74
2021/06/25 03:41:08;;;;;;;10.65;6.28;;;10.20;99.90;;;;;;4909701;29;20061;-75
2021/06/25 03:43:35;;;;;;;5.90;5.40;;;10.10;99.90;;;;;;4908880;29;20052;-73
2021/06/25 03:46:01;;;;;;;6.25;5.65;;;10.10;99.90;;;;;;4909581;29;20052;-72
2021/06/25 03:48:27;;;;;;;5.25;4.75;;;10.10;99.90;;;;;;4909059;29;20048;-71
2021/06/25 03:50:53;;;;;;;6.55;5.95;;;10.20;99.90;;;;;;4909522;29;20405;-71
2021/06/25 03:53:19;;;;;;;5.93;5.35;;;10.30;99.90;;;;;;4908296;29;20041;-71
2021/06/25 03:56:28;;;;;;;6.50;5.90;;;10.30;99.90;;;;;;4910098;29;20131;-71
2021/06/25 03:58:36;;;;;;;7.32;6.63;;;10.20;99.90;;;;;;4901777;29;20398;-72
2021/06/25 04:01:02;;;;;;;8.35;7.55;;;10.20;99.90;;;;;;4909474;29;20052;-71
2021/06/25 04:03:28;;;;;;;7.72;7.03;;;10.20;99.90;;;;;;4909192;29;20045;-70
2021/06/25 04:05:53;;;;;;;7.80;6.80;;;10.10;99.90;;;;;;4909237;29;20076;-72
2021/06/25 04:08:19;;;;;;;7.90;7.05;;;10.20;99.90;;;;;;4909639;29;20040;-71
2021/06/25 04:10:45;;;;;;;6.88;6.18;;;10.20;99.90;;;;;;4909658;29;20055;-71
2021/06/25 04:13:11;;;;;;;8.88;7.95;;;10.30;99.90;;;;;;4909211;29;20056;-71
2021/06/25 04:15:37;;;;;;;7.53;6.72;;;10.30;99.90;;;;;;4908943;29;20053;-71
2021/06/25 04:18:03;;;;;;;9.23;8.23;;;10.40;99.90;;;;;;4909167;29;20048;-71
2021/06/25 04:20:29;;;;;;;9.98;8.20;;;10.40;99.90;;;;;;4909081;29;20052;-71
2021/06/25 04:22:55;;;;;;;8.30;7.50;;;10.50;99.90;;;;;;4909910;29;20116;-72
2021/06/25 04:25:21;;;;;;;7.55;6.85;;;10.50;99.90;;;;;;4909471;29;20081;-71
2021/06/25 04:27:47;;;;;;;6.40;5.78;;;10.60;99.90;;;;;;4908442;29;20076;-71
2021/06/25 04:30:17;;;;;;;5.38;4.88;;;10.70;99.90;;;;;;4910071;29;20044;-72
2021/06/25 04:32:44;;;;;;;5.35;4.82;;;10.90;99.90;;;;;;4909873;29;20052;-72
2021/06/25 04:35:11;;;;;;;6.18;5.57;;;10.90;99.90;;;;;;4909716;29;20055;-71
2021/06/25 04:37:36;;;;;;;7.65;6.43;;;10.90;99.90;;;;;;4909403;29;20046;-72
2021/06/25 04:40:03;;;;;;;8.27;6.43;;;10.90;99.90;;;;;;4909703;29;20512;-71
2021/06/25 04:42:33;;;;;;;7.75;7.05;;;10.90;99.90;;;;;;4909682;29;20052;-71
2021/06/25 04:44:59;;;;;;;8.23;7.43;;;10.90;99.90;;;;;;4908917;29;20177;-71
2021/06/25 04:47:25;;;;;;;9.30;8.40;;;10.90;99.90;;;;;;4908736;29;20116;-71
2021/06/25 04:49:51;;;;;;;10.02;8.63;;;10.90;99.90;;;;;;4891910;29;20053;-72
2021/06/25 04:52:17;;;;;;;9.32;8.35;;;11.00;99.90;;;;;;4908842;29;20059;-71
2021/06/25 04:54:44;;;;;;;11.55;10.00;;;11.20;99.90;;;;;;4911611;29;20044;-72
2021/06/25 04:57:10;;;;;;;12.57;11.30;;;11.30;99.90;;;;;;4912041;29;20060;-72
2021/06/25 04:59:35;;;;;;;13.73;11.38;;;11.40;99.90;;;;;;4912264;29;20044;-72
2021/06/25 05:02:02;;;;;;;15.95;12.77;;;11.50;99.90;;;;;;4912532;29;20051;-72
2021/06/25 05:04:28;;;;;;;15.68;13.35;;;11.50;99.90;;;;;;4913242;29;20044;-72
2021/06/25 05:06:54;;;;;;;13.55;12.23;;;11.60;99.90;;;;;;4911060;29;20136;-71
2021/06/25 05:09:20;;;;;;;14.18;12.68;;;11.60;99.90;;;;;;4911984;29;20056;-71
2021/06/25 05:11:46;;;;;;;16.02;13.52;;;11.70;99.90;;;;;;4912105;29;20116;-72
2021/06/25 05:14:26;;;;;;;17.88;15.95;;;11.80;99.90;;;;;;4871609;29;20120;-71
2021/06/25 05:16:53;;;;;;;16.08;14.43;;;11.90;99.90;;;;;;4897594;29;20053;-72
2021/06/25 05:19:19;;;;;;;16.67;14.93;;;11.90;99.90;;;;;;4911699;29;20044;-71
2021/06/25 05:21:44;;;;;;;16.13;14.52;;;11.90;99.90;;;;;;4911681;29;20044;-72
2021/06/25 05:24:10;;;;;;;16.23;14.57;;;12.00;99.90;;;;;;4909781;29;20108;-73
2021/06/25 05:26:36;;;;;;;15.52;13.93;;;12.00;99.90;;;;;;4910451;29;20124;-73
2021/06/25 05:29:03;;;;;;;16.17;13.63;;;12.10;99.90;;;;;;4911901;29;20044;-73
2021/06/25 05:31:29;;;;;;;16.52;14.82;;;12.10;99.90;;;;;;4910331;29;20401;-73
2021/06/25 05:33:56;;;;;;;17.00;15.27;;;12.20;99.90;;;;;;4907484;29;20074;-74
2021/06/25 05:36:22;;;;;;;17.20;15.27;;;12.30;99.90;;;;;;4900528;29;20489;-74
2021/06/25 05:38:48;;;;;;;17.40;15.60;;;12.30;99.90;;;;;;4909110;29;20129;-74
2021/06/25 05:41:14;;;;;;;17.25;15.10;;;12.40;99.90;;;;;;4895737;29;20045;-73
2021/06/25 05:43:42;;;;;;;17.08;15.38;;;12.50;99.90;;;;;;4909056;29;20052;-72
2021/06/25 05:46:08;;;;;;;18.70;16.20;;;12.50;99.90;;;;;;4898014;29;20067;-73
2021/06/25 05:48:34;;;;;;;17.42;15.63;;;12.60;99.90;;;;;;4909947;29;20044;-76
2021/06/25 05:51:00;;;;;;;16.90;15.30;;;12.70;99.90;;;;;;4910976;29;20547;-72
2021/06/25 05:53:26;;;;;;;18.90;16.83;;;12.70;99.90;;;;;;4910347;29;20091;-73
2021/06/25 05:55:52;;;;;;;19.52;16.45;;;12.90;99.90;;;;;;4911137;29;20041;-81
2021/06/25 05:58:18;;;;;;;18.70;15.98;;;13.00;99.90;;;;;;4897190;29;20654;-74
2021/06/25 06:00:44;;;;;;;15.98;14.27;;;13.00;99.90;;;;;;4920045;29;20071;-73
2021/06/25 06:03:10;;;;;;;16.63;14.35;;;13.10;99.90;;;;;;4905561;29;20088;-73
2021/06/25 06:05:36;;;;;;;15.68;14.07;;;13.10;99.90;;;;;;4897830;29;20059;-72
2021/06/25 06:08:03;;;;;;;17.02;14.63;;;13.20;99.90;;;;;;4886714;29;20059;-73
2021/06/25 06:10:29;;;;;;;17.27;15.48;;;13.30;99.90;;;;;;4909402;29;20195;-73
2021/06/25 06:12:55;;;;;;;21.15;16.10;;;13.30;99.90;;;;;;4881553;29;20056;-73
2021/06/25 06:15:24;;;;;;;17.95;16.08;;;13.40;99.90;;;;;;4911033;29;20417;-73
2021/06/25 06:17:51;;;;;;;17.85;15.95;;;13.50;99.90;;;;;;4897009;29;20425;-73
2021/06/25 06:20:27;;;;;;;19.23;17.23;;;13.50;99.90;;;;;;4913746;29;20589;-73
2021/06/25 06:31:22;;;;;;;17.92;16.05;;;13.90;99.90;;;;;;4909837;29;20052;-73
2021/06/25 06:38:53;;;;;;;17.15;15.45;;;14.10;99.90;;;;;;4904709;29;20083;-74
2021/06/25 06:41:19;;;;;;;17.48;15.45;;;14.20;99.90;;;;;;4910253;29;20047;-74
2021/06/25 06:43:46;;;;;;;18.80;16.02;;;14.30;99.90;;;;;;4902273;29;20052;-73
2021/06/25 06:46:13;;;;;;;17.23;15.18;;;14.40;99.90;;;;;;4910047;29;20040;-73
2021/06/25 06:48:39;;;;;;;17.80;15.93;;;14.50;99.90;;;;;;4902493;29;20188;-73
2021/06/25 06:51:05;;;;;;;18.27;15.73;;;14.50;99.90;;;;;;4911433;29;20163;-73
2021/06/25 06:53:32;;;;;;;15.05;13.48;;;14.70;99.90;;;;;;4897271;29;20048;-68
2021/06/25 06:55:59;;;;;;;15.40;13.68;;;14.80;99.90;;;;;;4910793;29;20055;-69
2021/06/25 06:58:25;;;;;;;17.85;15.23;;;14.90;99.90;;;;;;4897859;29;20044;-68
2021/06/25 07:00:52;;;;;;;15.95;14.25;;;15.10;99.90;;;;;;4895372;29;20124;-68
2021/06/25 07:03:18;;;;;;;16.50;14.73;;;15.20;99.90;;;;;;4897107;29;20079;-68
2021/06/25 07:05:44;;;;;;;14.55;13.15;;;15.30;99.90;;;;;;4913442;29;20052;-68
2021/06/25 07:08:10;;;;;;;15.23;13.57;;;15.40;99.90;;;;;;4897411;29;20052;-67
2021/06/25 07:10:36;;;;;;;14.30;12.80;;;15.50;99.90;;;;;;4915861;29;20048;-67
2021/06/25 07:13:02;;;;;;;13.00;11.80;;;15.50;99.90;;;;;;4887208;29;20048;-66
2021/06/25 07:15:28;;;;;;;13.23;11.52;;;15.60;99.90;;;;;;4914026;29;20049;-67
2021/06/25 07:17:54;;;;;;;14.50;12.80;;;15.60;99.90;;;;;;4895817;29;20048;-67
2021/06/25 07:20:20;;;;;;;13.20;11.57;;;15.70;99.90;;;;;;4917645;29;20048;-65
2021/06/25 07:22:45;;;;;;;14.38;12.85;;;15.70;99.90;;;;;;4899684;28;20063;-64
2021/06/25 07:25:12;;;;;;;15.90;13.20;;;15.80;99.90;;;;;;4907302;29;20093;-69
2021/06/25 07:27:38;;;;;;;14.05;11.93;;;15.90;99.90;;;;;;4899758;29;20052;-65
2021/06/25 07:30:05;;;;;;;14.55;13.10;;;16.00;99.90;;;;;;4909235;29;20107;-66
2021/06/25 07:32:31;;;;;;;14.95;13.35;;;16.00;99.90;;;;;;4900861;29;20048;-65
2021/06/25 07:34:57;;;;;;;16.83;13.05;;;16.20;99.90;;;;;;4906290;29;20115;-65
2021/06/25 07:37:23;;;;;;;12.98;11.18;;;16.20;99.90;;;;;;4904942;29;20084;-65
2021/06/25 07:39:49;;;;;;;10.25;9.25;;;16.30;99.90;;;;;;4896873;29;20104;-65
2021/06/25 07:42:15;;;;;;;11.20;9.43;;;16.40;99.90;;;;;;4899380;29;20048;-65
2021/06/25 07:44:41;;;;;;;13.55;10.82;;;16.50;99.90;;;;;;4900484;29;20064;-65
2021/06/25 07:47:07;;;;;;;14.43;11.20;;;16.60;99.90;;;;;;4900924;29;20044;-65
2021/06/25 07:49:34;;;;;;;13.48;11.02;;;16.50;99.90;;;;;;4894447;29;20052;-65
2021/06/25 07:52:00;;;;;;;13.85;12.38;;;16.60;99.90;;;;;;4903465;29;20084;-65
2021/06/25 07:54:46;;;;;;;14.27;12.43;;;16.70;99.90;;;;;;4898482;29;20431;-63
2021/06/25 07:57:12;;;;;;;14.77;13.27;;;16.70;99.90;;;;;;4906309;29;20049;-66
2021/06/25 07:59:38;;;;;;;16.15;12.68;;;16.70;99.90;;;;;;4894145;29;20124;-66
2021/06/25 08:02:04;;;;;;;13.35;11.88;;;16.80;99.90;;;;;;4904331;29;20135;-66
2021/06/25 08:04:31;;;;;;;14.15;12.75;;;17.00;99.90;;;;;;4902821;29;20151;-66
2021/06/25 08:06:57;;;;;;;15.65;12.43;;;17.00;99.90;;;;;;4900341;29;20122;-66
2021/06/25 08:09:23;;;;;;;13.55;12.25;;;16.90;99.90;;;;;;4894130;29;20063;-66
2021/06/25 08:11:50;;;;;;;13.23;11.90;;;17.00;99.90;;;;;;4906576;29;20591;-66
2021/06/25 08:14:15;;;;;;;13.73;12.35;;;17.00;99.90;;;;;;4891214;29;20133;-66
2021/06/25 08:16:41;;;;;;;13.25;11.63;;;17.00;99.90;;;;;;4908369;29;20079;-66
2021/06/25 08:19:08;;;;;;;14.32;12.20;;;17.10;99.90;;;;;;4892014;29;20092;-66
2021/06/25 08:21:34;;;;;;;14.18;10.77;;;17.20;99.90;;;;;;4900130;29;20071;-66
2021/06/25 08:24:01;;;;;;;11.45;10.20;;;17.20;99.90;;;;;;4900667;29;20122;-66
2021/06/25 08:26:28;;;;;;;11.32;9.65;;;17.30;99.90;;;;;;4887912;28;20052;-66
2021/06/25 08:28:55;;;;;;;8.63;7.80;;;17.30;99.90;;;;;;4892253;29;20060;-66
2021/06/25 08:31:21;;;;;;;7.78;6.97;;;17.50;99.90;;;;;;4912433;29;20048;-66
2021/06/25 08:33:48;;;;;;;9.43;6.93;;;17.50;99.90;;;;;;4899943;29;20064;-66
2021/06/25 08:36:14;;;;;;;8.77;7.88;;;17.60;99.90;;;;;;4909059;29;20060;-67
2021/06/25 08:38:40;;;;;;;11.02;9.00;;;17.80;99.90;;;;;;4899866;29;20603;-67
2021/06/25 08:41:06;;;;;;;14.73;9.75;;;17.90;99.90;;;;;;4921382;29;20076;-66
2021/06/25 08:43:32;;;;;;;9.95;8.95;;;18.10;99.90;;;;;;4899124;29;20055;-66
2021/06/25 08:46:01;;;;;;;10.63;9.05;;;18.30;99.90;;;;;;4915038;29;20044;-66
2021/06/25 08:48:28;;;;;;;9.20;8.30;;;18.30;99.90;;;;;;4896352;29;20040;-66
2021/06/25 08:50:56;;;;;;;9.70;7.93;;;18.50;99.90;;;;;;4916539;29;20080;-66
2021/06/25 08:53:23;;;;;;;8.52;7.20;;;18.50;99.90;;;;;;4896061;29;20049;-67
2021/06/25 08:55:49;;;;;;;8.52;7.50;;;18.60;99.90;;;;;;4917247;29;20044;-67
2021/06/25 08:58:20;;;;;;;11.30;9.18;;;18.70;99.90;;;;;;4896961;29;20047;-67
2021/06/25 09:00:47;;;;;;;10.50;8.43;;;18.80;99.90;;;;;;4920047;29;20036;-67
2021/06/25 09:03:49;;;;;;;8.15;6.82;;;18.80;99.90;;;;;;4905228;29;20384;-67
2021/06/25 09:06:15;;;;;;;9.23;8.30;;;18.80;99.90;;;;;;4807656;29;22502;-66
2021/06/25 09:08:42;;;;;;;9.63;8.55;;;18.80;99.90;;;;;;4830518;29;20156;-66
2021/06/25 09:11:32;;;;;;;9.55;8.65;;;18.70;99.90;;;;;;4840313;29;20065;-66
2021/06/25 09:14:03;;;;;;;8.35;7.50;;;18.60;99.90;;;;;;4816740;29;20069;-66
2021/06/25 09:16:30;;;;;;;8.10;7.30;;;18.60;99.90;;;;;;4830552;29;20058;-67
2021/06/25 09:18:57;;;;;;;8.60;6.30;;;18.70;99.90;;;;;;4804790;29;20126;-66
2021/06/25 09:21:23;;;;;;;7.55;5.53;;;18.70;99.90;;;;;;4827856;29;20054;-66
2021/06/25 09:23:49;;;;;;;6.13;5.18;;;18.80;99.90;;;;;;4818261;29;20160;-66
2021/06/25 09:26:16;;;;;;;7.20;6.50;;;19.00;99.90;;;;;;4829146;29;20074;-67
2021/06/25 09:28:46;;;;;;;8.18;5.88;;;18.90;99.90;;;;;;4818488;29;20383;-66
2021/06/25 09:31:14;;;;;;;6.32;5.63;;;19.00;99.90;;;;;;4827042;29;20064;-66
2021/06/25 09:33:48;;;;;;;9.63;5.47;;;19.00;99.90;;;;;;4819329;29;20046;-66
2021/06/25 09:36:22;;;;;;;5.75;4.25;;;19.10;99.90;;;;;;4829523;29;20054;-66
2021/06/25 09:38:56;;;;;;;5.13;4.63;;;19.20;99.90;;;;;;4810223;29;20061;-66
2021/06/25 09:41:22;;;;;;;6.60;4.70;;;19.40;99.90;;;;;;4814279;29;20085;-66
2021/06/25 09:44:00;;;;;;;6.82;5.03;;;19.40;99.90;;;;;;4892967;29;20060;-66
2021/06/25 09:46:30;;;;;;;5.70;4.90;;;19.50;99.90;;;;;;4900980;29;20144;-66
2021/06/25 09:48:59;;;;;;;5.47;4.57;;;19.50;99.90;;;;;;4893345;29;20122;-66
2021/06/25 09:51:26;;;;;;;5.72;4.72;;;19.30;99.90;;;;;;4915061;29;20052;-66
2021/06/25 09:54:21;;;;;;;4.90;4.18;;;19.40;99.90;;;;;;4897760;29;20055;-66
2021/06/25 10:02:17;;;;;;;6.93;5.13;;;19.30;99.90;;;;;;4904312;29;20514;-66
2021/06/25 10:04:45;;;;;;;7.40;5.05;;;19.30;99.90;;;;;;4898551;29;20587;-66
2021/06/25 10:07:13;;;;;;;7.63;5.10;;;19.20;99.90;;;;;;4907979;29;20067;-66
2021/06/25 10:09:40;;;;;;;6.40;4.80;;;19.30;99.90;;;;;;4901788;29;20059;-66
2021/06/25 10:12:11;;;;;;;5.07;4.28;;;19.30;99.90;;;;;;4903104;29;20068;-66
2021/06/25 10:14:38;;;;;;;7.00;5.15;;;19.20;99.90;;;;;;4892227;29;20126;-66
2021/06/25 10:17:05;;;;;;;7.28;5.22;;;19.20;99.90;;;;;;4909696;29;20052;-65
2021/06/25 10:19:32;;;;;;;7.20;5.10;;;19.00;99.90;;;;;;4899869;29;20048;-66
2021/06/25 10:22:02;;;;;;;5.53;4.55;;;18.80;99.90;;;;;;4912297;29;20051;-66
2021/06/25 10:24:31;;;;;;;8.23;5.60;;;19.00;99.90;;;;;;4901956;29;20123;-66
2021/06/25 10:26:58;;;;;;;6.17;5.10;;;19.20;99.90;;;;;;4910981;29;20165;-66
2021/06/25 10:29:25;;;;;;;6.68;5.45;;;19.10;99.90;;;;;;4900980;29;20048;-66
2021/06/25 10:31:52;;;;;;;6.78;5.35;;;19.30;99.90;;;;;;4913407;29;20037;-66
2021/06/25 10:34:18;;;;;;;7.93;6.13;;;19.50;99.90;;;;;;4899749;29;20071;-66
2021/06/25 10:36:44;;;;;;;8.52;6.80;;;19.60;99.90;;;;;;4914510;29;20045;-66
2021/06/25 10:39:13;;;;;;;7.72;5.72;;;19.70;99.90;;;;;;4898928;29;20095;-66
2021/06/25 10:41:50;;;;;;;5.27;4.73;;;19.90;99.90;;;;;;4915512;29;20065;-67
2021/06/25 10:44:40;;;;;;;5.68;4.57;;;20.00;99.90;;;;;;4899465;29;20063;-67
2021/06/25 10:47:20;;;;;;;6.65;5.80;;;20.20;99.90;;;;;;4898170;28;20044;-67
2021/06/25 10:50:14;;;;;;;7.75;6.82;;;20.30;99.90;;;;;;4892362;29;20371;-67
2021/06/25 10:52:41;;;;;;;9.27;6.78;;;20.30;99.90;;;;;;4899908;29;20048;-67
2021/06/25 10:55:18;;;;;;;7.55;6.03;;;20.40;99.90;;;;;;4900211;29;20048;-67
2021/06/25 10:57:50;;;;;;;10.73;6.20;;;20.50;99.90;;;;;;4904553;29;20449;-67
2021/06/25 11:00:51;;;;;;;8.32;6.38;;;20.60;99.90;;;;;;4904873;29;20056;-67
2021/06/25 11:03:38;;;;;;;8.93;5.68;;;20.70;99.90;;;;;;4904578;29;20054;-67
2021/06/25 11:06:28;;;;;;;8.88;7.05;;;20.90;99.90;;;;;;4895703;29;20073;-67
2021/06/25 11:09:05;;;;;;;8.95;6.38;;;21.10;99.90;;;;;;4891014;29;20048;-67
2021/06/25 11:11:31;;;;;;;9.43;6.97;;;21.30;99.90;;;;;;4906692;29;20041;-67
2021/06/25 11:13:57;;;;;;;9.55;8.25;;;21.40;99.90;;;;;;4877644;29;20064;-67
2021/06/25 11:16:23;;;;;;;11.18;8.80;;;21.40;99.90;;;;;;4917205;29;20056;-67
2021/06/25 11:18:49;;;;;;;13.52;10.27;;;21.40;99.90;;;;;;4895143;29;20060;-67
2021/06/25 11:21:15;;;;;;;10.43;9.32;;;21.40;99.90;;;;;;4918462;29;20053;-67
2021/06/25 11:23:46;;;;;;;12.48;11.05;;;21.40;99.90;;;;;;4904020;29;20037;-67
2021/06/25 11:26:15;;;;;;;13.18;9.65;;;21.50;99.90;;;;;;4891856;29;20204;-67
2021/06/25 11:28:42;;;;;;;11.07;9.73;;;21.50;99.90;;;;;;4890640;29;20040;-67
2021/06/25 11:31:20;;;;;;;10.48;8.75;;;21.50;99.90;;;;;;4908030;29;20472;-67
2021/06/25 11:33:58;;;;;;;12.25;9.60;;;21.70;99.90;;;;;;4902651;29;20052;-67
2021/06/25 11:36:38;;;;;;;12.93;11.00;;;21.80;99.90;;;;;;4915575;29;20532;-67
2021/06/25 11:39:20;;;;;;;13.57;10.77;;;21.80;99.90;;;;;;4882163;29;20041;-67
2021/06/25 11:41:57;;;;;;;14.07;11.23;;;21.70;99.90;;;;;;4906809;29;20074;-67
2021/06/25 11:44:37;;;;;;;13.05;11.65;;;21.80;99.90;;;;;;4890993;29;20060;-67
2021/06/25 11:47:10;;;;;;;13.95;10.80;;;21.90;99.90;;;;;;4900196;29;20429;-67
2021/06/25 11:49:40;;;;;;;15.55;12.02;;;22.20;99.90;;;;;;4899365;29;20452;-67
2021/06/25 11:52:10;;;;;;;14.50;12.23;;;22.40;99.90;;;;;;4909149;29;20049;-67
2021/06/25 11:54:37;;;;;;;13.63;12.13;;;22.10;99.90;;;;;;4893803;29;20056;-67
2021/06/25 11:57:04;;;;;;;16.00;13.05;;;21.90;99.90;;;;;;4895117;29;20056;-67
2021/06/25 11:59:30;;;;;;;14.55;12.23;;;21.50;99.90;;;;;;4896735;29;20048;-67
2021/06/25 12:01:59;;;;;;;19.13;12.98;;;21.60;99.90;;;;;;4896710;29;20049;-67
2021/06/25 12:04:36;;;;;;;16.33;13.15;;;21.40;99.90;;;;;;4882033;29;20795;-67
2021/06/25 12:07:03;;;;;;;21.50;14.48;;;21.60;99.90;;;;;;4905557;29;20056;-67
2021/06/25 12:09:48;;;;;;;16.27;14.57;;;21.30;99.90;;;;;;4895779;29;20045;-67
2021/06/25 12:12:25;;;;;;;15.38;13.48;;;21.00;99.90;;;;;;4840142;29;20060;-67
2021/06/25 12:14:56;;;;;;;15.40;13.13;;;21.10;99.90;;;;;;4895853;29;20064;-67
2021/06/25 12:17:23;;;;;;;15.98;12.88;;;21.10;99.90;;;;;;4911256;29;20052;-67
2021/06/25 12:20:06;;;;;;;16.20;13.25;;;21.40;99.90;;;;;;4883100;29;20049;-67
2021/06/25 12:23:05;;;;;;;17.73;14.27;;;21.80;99.90;;;;;;4901217;29;20147;-67
2021/06/25 12:25:39;;;;;;;15.70;12.60;;;22.10;99.90;;;;;;4904905;29;20084;-67
2021/06/25 12:28:07;;;;;;;16.20;13.02;;;22.00;99.90;;;;;;4908859;29;20217;-67
2021/06/25 12:30:35;;;;;;;17.23;14.23;;;22.00;99.90;;;;;;4905046;29;20047;-67
2021/06/25 12:33:03;;;;;;;14.82;13.18;;;22.10;99.90;;;;;;4908290;29;20092;-67
2021/06/25 12:35:35;;;;;;;14.75;13.20;;;22.20;99.90;;;;;;4904978;29;20051;-67
2021/06/25 12:38:06;;;;;;;16.52;14.82;;;22.40;99.90;;;;;;4907900;29;20416;-67
2021/06/25 12:40:45;;;;;;;16.08;13.07;;;22.20;99.90;;;;;;4905011;29;20053;-67
2021/06/25 12:43:18;;;;;;;17.15;15.13;;;22.20;99.90;;;;;;4901344;29;20063;-67
2021/06/25 12:45:51;;;;;;;18.17;16.23;;;22.20;99.90;;;;;;4904294;29;20076;-67
2021/06/25 12:48:22;;;;;;;20.95;17.48;;;22.00;99.90;;;;;;4892484;29;20048;-67
2021/06/25 12:50:49;;;;;;;17.83;16.02;;;21.60;99.90;;;;;;4902923;29;20045;-67
2021/06/25 12:53:17;;;;;;;21.13;16.80;;;21.40;99.90;;;;;;4905983;29;20612;-67
2021/06/25 12:55:44;;;;;;;20.75;16.50;;;21.60;99.90;;;;;;4903991;29;20083;-67
2021/06/25 12:58:19;;;;;;;20.05;16.38;;;21.70;99.90;;;;;;4907708;29;20056;-67
2021/06/25 13:00:50;;;;;;;18.23;16.27;;;21.60;99.90;;;;;;4889629;29;20049;-67
2021/06/25 13:03:17;;;;;;;18.92;15.88;;;21.70;99.90;;;;;;4894982;29;20059;-67